EST,Max TemperatureF,Mean TemperatureF,Min TemperatureF,Max Dew PointF,MeanDew PointF,Min DewpointF,Max Humidity, Mean Humidity, Min Humidity, Max Sea Level PressureIn, Mean Sea Level PressureIn, Min Sea Level PressureIn, Max VisibilityMiles, Mean VisibilityMiles, Min VisibilityMiles, Max Wind SpeedMPH, Mean Wind SpeedMPH, Max Gust SpeedMPH,PrecipitationIn, CloudCover, Events, WindDirDegrees
2013-11-1,67,58,47,55,50,43,94,81,42,29.81,29.69,29.55,10,10,10,18,11,28,0.00,5,Rain,247
2013-11-2,59,49,39,46,42,38,99,72,55,30.15,29.94,29.82,10,10,8,16,6,22,0.01,4,Rain-Thunderstorm,277
2013-11-3,56,44,33,38,35,33,99,67,44,30.32,30.27,30.16,10,10,9,8,4,,0.00,2,Rain,79
2013-11-4,62,51,40,43,40,36,87,63,45,30.37,30.32,30.29,10,10,7,17,7,22,0.00,3,,141
2013-11-5,64,56,48,43,41,39,74,61,46,30.40,30.32,30.21,10,10,10,10,5,,0.00,6,Rain,154
2013-11-6,66,58,46,61,51,43,99,78,62,30.20,30.10,30.01,10,9,3,20,9,26,0.22,5,Rain,185
2013-11-7,50,42,35,37,30,24,95,67,37,30.34,30.29,30.22,10,10,6,10,7,17,0.00,1,,287
2013-11-8,53,40,26,31,27,24,94,63,32,30.42,30.33,30.26,10,10,10,6,2,,0.00,0,Rain,335
2013-11-9,62,48,33,35,30,26,81,52,32,30.25,30.19,30.10,10,10,10,22,7,29,0.00,0,Rain,205
2013-11-10,56,46,34,38,30,23,91,59,28,30.37,30.31,30.19,10,10,3,14,6,17,0.00,0,,295
2013-11-11,64,46,29,45,28,19,91,44,18,30.32,30.19,30.12,10,9,3,17,5,22,0.00,5,Rain,230
2013-11-12,48,37,26,45,28,14,100,76,36,30.67,30.42,30.20,10,10,5,20,13,28,0.02,5,Rain-Snow,350
2013-11-13,42,32,21,23,20,18,92,66,39,30.70,30.59,30.44,10,10,6,8,4,,0.00,0,,228
2013-11-14,54,40,27,23,20,18,72,47,24,30.43,30.32,30.19,10,10,5,17,7,18,0.00,0,,188
2013-11-15,53,44,34,46,36,19,100,71,45,30.20,30.13,30.09,10,9,2,10,5,,0.09,6,Rain,151
2013-11-16,62,55,48,58,52,48,100,94,82,30.12,30.05,29.91,10,6,2,17,9,31,0.00,8,,164
2013-11-17,67,58,50,65,59,40,100,88,54,29.90,29.77,29.59,10,8,1,23,14,29,1.69,7,Rain-Thunderstorm,179
2013-11-18,55,46,36,41,35,27,89,64,41,30.24,30.09,29.91,10,10,10,17,8,25,0.00,0,,276
2013-11-19,44,37,30,29,27,26,83,67,52,30.34,30.29,30.25,10,10,10,10,6,,0.01,3,,8
2013-11-20,56,43,30,35,29,25,82,63,41,30.29,30.24,30.18,10,10,10,10,7,,0.00,2,,97
2013-11-21,63,52,42,52,43,31,91,73,61,30.29,30.23,30.17,10,10,5,15,6,21,0.01,6,Rain,162
2013-11-22,55,48,41,56,51,34,100,96,77,30.38,30.23,30.18,10,7,2,15,6,20,0.16,8,Rain,238
2013-11-23,43,34,22,34,24,9,87,66,29,30.61,30.45,30.36,10,10,10,15,9,26,0.00,5,,327
2013-11-24,29,24,18,15,11,8,76,62,42,30.72,30.62,30.53,10,10,10,10,7,,0.00,4,Snow,347
2013-11-25,41,32,23,32,23,13,100,71,36,30.52,30.30,30.18,10,9,4,12,7,,0.00,8,Snow,159
2013-11-26,35,34,32,34,32,27,100,96,77,30.22,30.07,29.92,10,6,1,12,3,,0.05,8,Rain-Snow,2
2013-11-27,33,25,17,27,19,10,80,72,55,30.37,30.11,29.96,10,10,10,17,11,24,0.00,7,Snow,292
2013-11-28,38,26,14,18,15,10,86,65,38,30.49,30.41,30.34,10,10,10,14,4,,0.00,1,,192
2013-11-29,45,32,20,23,21,16,85,66,42,30.63,30.55,30.49,10,10,8,8,2,,0.00,1,,77
2013-11-30,55,40,26,29,26,22,86,60,34,30.47,30.35,30.22,10,10,6,14,6,18,0.00,0,,163